Terminal Aerodrome Forecast
Issued by NWS Wilmington, OH

Current Version | Previous Version | Graphics & Text | Print | Product List | Glossary On
Versions: 1 2 3 4 5 6 7 8 9 10 11 12 13 14 15 16 17 18 19 20 21 22 23 24 25 26 27 28 29
000
FTUS41 KILN 282332
TAFDAY
TAF
KDAY 282332Z 2900/2924 08003KT P6SM SCT040 BKN250
     FM290600 00000KT 4SM BR FEW035
     FM290900 00000KT 2SM BR FEW150
     FM291300 25005KT P6SM SCT035 BKN120
     FM292000 27008KT P6SM -SHRA VCTS BKN035CB
     FM292300 28006KT P6SM FEW035 BKN200=

USA.gov is the U.S. government's official web portal to all federal, state and local government web resources and services.